Westport, Connecticut
Current Conditions -  °F | °C
As of 12:52 PM on Saturday 25 Oct 2014 (Local Time) from KBDR Reporting Station
Clear Clear  
Wind Chill: 17°   Ceiling: Unl
Heat Index: 17°   Visibility: 10mi
Dew Point:   Wind: 12mph
Humidity: 53%   Direction: 220°SW
Pressure: 29.75"   Gusts: NA
Location:  41.14°N, 73.36°W
Report Text: KBDR 251652Z 22010KT 10SM CLR 17/07 A2975 RMK AO2 SLP076 T01670072
Loading
Personal Weather Stations






























Interactive Weather Map
Tropical Storm Tracking
New forecast layout! Learn more

10-Day Weather Forecast

Advertisements
Track Severe Weather on mobile